Nearby Weather Observations


KTIP - Rantoul, Illinois, USA
Distance from station: ENE 12mi, 19km
Updated: Sat, 23-Sep-2017 2:15am CDT
Clear
Clear
 Wind from calm
Wind: Calm
Temperature: 72°F , 22°C
Dew Point: 68°F , 20°C
Humidity: 88%
Barometer: 30.05 inHg , 1017.6 hPa
Clouds: Clear
Visibility: 10 miles , 16 km
2017/09/23 07:15 KTIP 230715Z AUTO 00000KT 10SM CLR 22/20 A3005 RMK AO2 T02210197
KCMI - Champaign/Urbana, Illinois, USA
Distance from station: SSE 14mi, 22km
Updated: Sat, 23-Sep-2017 1:53am CDT
Clear
Clear
 Wind from ESE
Wind: ESE 5 mph , 7 km/h
Temperature: 70°F , 21°C
Dew Point: 64°F , 18°C
Humidity: 83%
Barometer: 30.05 inHg , 1017.6 hPa
Clouds: Clear
Visibility: 10 miles , 16 km
2017/09/23 06:53 KCMI 230653Z AUTO 11004KT 10SM CLR 21/18 A3005 RMK AO2 SLP168 T02110183
 
KBMI - Bloomington/Norm, Illinois, USA
Distance from station: WNW 34mi, 55km
Updated: Sat, 23-Sep-2017 1:56am CDT
Clear
Clear
 Wind from SSE
Wind: SSE 8 mph , 13 km/h
Temperature: 73°F , 23°C
Dew Point: 64°F , 18°C
Humidity: 74%
Barometer: 30.06 inHg , 1017.9 hPa
Clouds: Clear
Visibility: 10 miles , 16 km
2017/09/23 06:56 KBMI 230656Z AUTO 16007KT 10SM CLR 23/18 A3006 RMK AO2 SLP185 T02280183 TSNO
KDEC - Decatur, Illinois, USA
Distance from station: SW 37mi, 60km
Updated: Sat, 23-Sep-2017 1:54am CDT
Clear
Clear
 Wind from calm
Wind: Calm
Temperature: 70°F , 21°C
Dew Point: 64°F , 18°C
Humidity: 83%
Barometer: 30.04 inHg , 1017.3 hPa
Clouds: Clear
Visibility: 10 miles , 16 km
2017/09/23 06:54 KDEC 230654Z AUTO 00000KT 10SM CLR 21/18 A3004 RMK AO2 SLP166 T02110183
 
KDNV - Danville, Illinois, USA
Distance from station: E 40mi, 65km
Updated: Sat, 23-Sep-2017 2:15am CDT
Clear
Clear
 Wind from calm
Wind: Calm
Temperature: 66°F , 19°C
Dew Point: 64°F , 18°C
Humidity: 94%
Barometer: 30.03 inHg , 1016.9 hPa
Clouds: Clear
Visibility: 7 miles , 11 km
2017/09/23 07:15 KDNV 230715Z AUTO 00000KT 7SM CLR 19/18 A3003 RMK AO2 T01870184
KAAA - Lincoln, Illinois, USA
Distance from station: W 52mi, 83km
Updated: Sat, 23-Sep-2017 2:15am CDT
Clear
Clear
 Wind from S
Wind: S 3 mph , 6 km/h
Temperature: 72°F , 22°C
Dew Point: 66°F , 19°C
Humidity: 83%
Barometer: 30.03 inHg , 1016.9 hPa
Clouds: Clear
Visibility: 10 miles , 16 km
2017/09/23 07:15 KAAA 230715Z AUTO 17003KT 10SM CLR 22/19 A3003 RMK AO2 T02210192
 
KMTO - Mattoon/Charlest, Illinois, USA
Distance from station: S 52mi, 84km
Updated: Sat, 23-Sep-2017 1:53am CDT
Clear
Clear
 Wind from SSE
Wind: SSE 5 mph , 7 km/h
Temperature: 72°F , 22°C
Dew Point: 66°F , 19°C
Humidity: 83%
Barometer: 30.04 inHg , 1017.3 hPa
Clouds: Clear
Visibility: 10 miles , 16 km
2017/09/23 06:53 KMTO 230653Z AUTO 16004KT 10SM CLR 22/19 A3004 RMK AO2 SLP163 T02170194
KSPI - Springfield, Illinois, USA
Distance from station: WSW 74mi, 120km
Updated: Sat, 23-Sep-2017 1:52am CDT
Clear
Clear
 Wind from SE
Wind: SE 5 mph , 7 km/h
Temperature: 73°F , 23°C
Dew Point: 66°F , 19°C
Humidity: 78%
Barometer: 30.03 inHg , 1016.9 hPa
Clouds: Clear
Visibility: 10 miles , 16 km
2017/09/23 06:52 KSPI 230652Z AUTO 14004KT 10SM CLR 23/19 A3003 RMK AO2 SLP162 T02280189
 
KLAF - Lafayette, Indiana, USA
Distance from station: E 76mi, 123km
Updated: Sat, 23-Sep-2017 1:54am CDT
Clear
Clear
 Wind from calm
Wind: Calm
Temperature: 68°F , 20°C
Dew Point: 68°F , 20°C
Humidity: 100%
Barometer: 30.04 inHg , 1017.3 hPa
Clouds: Clear
Visibility: 7 miles , 11 km
2017/09/23 06:54 KLAF 230654Z AUTO 00000KT 7SM CLR 20/20 A3004 RMK AO2 SLP167 T02000200
KPIA - Peoria, Illinois, USA
Distance from station: WNW 76mi, 123km
Updated: Sat, 23-Sep-2017 1:54am CDT
Clear
Clear
 Wind from calm
Wind: Calm
Temperature: 75°F , 24°C
Dew Point: 64°F , 18°C
Humidity: 69%
Barometer: 30.03 inHg , 1016.9 hPa
Clouds: Clear
Visibility: 10 miles , 16 km
2017/09/23 06:54 KPIA 230654Z 00000KT 10SM CLR 24/18 A3003 RMK AO2 SLP161 T02440183
 
KHUF - Terre Haute, Indiana, USA
Distance from station: SE 77mi, 124km
Updated: Sat, 23-Sep-2017 1:53am CDT
Partly cloudy
Partly cloudy
 Wind from calm
Wind: Calm
Temperature: 70°F , 21°C
Dew Point: 66°F , 19°C
Humidity: 88%
Barometer: 30.05 inHg , 1017.6 hPa
Clouds: Partly cloudy
Visibility: 8 miles , 13 km
Cloud details: Partly cloudy 7000 ft
2017/09/23 06:53 KHUF 230653Z 00000KT 8SM SCT070 21/19 A3005 RMK AO2 SLP170 T02060189
K1H2 - Effingham, Illinois, USA
Distance from station: S 80mi, 129km
Updated: Sat, 23-Sep-2017 2:15am CDT
Clear
Clear
 Wind from calm
Wind: Calm
Temperature: 68°F , 20°C
Dew Point: 66°F , 19°C
Humidity: 94%
Barometer: 30.05 inHg , 1017.6 hPa
Clouds: Clear
Visibility: 10 miles , 16 km
2017/09/23 07:15 K1H2 230715Z AUTO 00000KT 10SM CLR 20/19 A3005 RMK AO2 T02010192
 
KIND - Indianapolis, Indiana, USA
Distance from station: ESE 117mi, 133km
Updated: Sat, 23-Sep-2017 12:54am CDT
NOT Current
Clear
Clear
 Wind from ESE
Wind: ESE 5 mph , 7 km/h
Temperature: 73°F , 23°C
Dew Point: 66°F , 19°C
Humidity: 78%
Barometer: 30.06 inHg , 1017.9 hPa
Clouds: Clear
Visibility: 10 miles , 16 km
2017/09/23 05:54 KIND 230554Z 12004KT 10SM CLR 23/19 A3006 RMK AO2 SLP172 T02330194 10272 20233 50002
KORD - Chicago O'hare, Illinois, USA
Distance from station: N 126mi, 203km
Updated: Sat, 23-Sep-2017 1:51am CDT
Clear
Clear
 Wind from S
Wind: S 5 mph , 7 km/h
Temperature: 75°F , 24°C
Dew Point: 66°F , 19°C
Humidity: 74%
Barometer: 30.03 inHg , 1016.9 hPa
Clouds: Clear
Visibility: 10 miles , 16 km
2017/09/23 06:51 KORD 230651Z 18004KT 10SM CLR 24/19 A3003 RMK AO2 SLP163 T02390189
 
KSTL - St. Louis, Missouri, USA
Distance from station: SW 150mi, 185km
Updated: Sat, 23-Sep-2017 1:51am CDT
Clear
Clear
 Wind from E
Wind: E 5 mph , 7 km/h
Temperature: 75°F , 24°C
Dew Point: 64°F , 18°C
Humidity: 69%
Barometer: 30.02 inHg , 1016.6 hPa
Clouds: Clear
Visibility: 10 miles , 16 km
2017/09/23 06:51 KSTL 230651Z 10004KT 10SM CLR 24/18 A3002 RMK AO2 SLP152 T02390183